Terminal Aerodrome Forecast
Issued by NWS

Home | Current Version | Previous Version | Text Only | Print | Product List | Glossary On
Versions: 1 2 3 4 5 6 7 8 9 10 11 12 13 14 15
378
FTUS45 KRIW 192324
TAFRKS
TAF
KRKS 192324Z 2000/2024 28014G22KT P6SM FEW110 SCT200
     FM200200 25008KT P6SM SCT200
     FM201900 24017G27KT P6SM SCT100 BKN150=

USA.gov is the U.S. government's official web portal to all federal, state and local government web resources and services.